createdAt,value
2018-08-04T00:00:30.170Z,25.74
2018-08-04T00:02:59.288Z,25.77
2018-08-04T00:05:28.165Z,25.80
2018-08-04T00:07:57.014Z,25.48
2018-08-04T00:10:25.990Z,25.68
2018-08-04T00:12:55.157Z,25.78
2018-08-04T00:15:24.053Z,25.39
2018-08-04T00:17:52.911Z,25.20
2018-08-04T00:20:21.816Z,24.99
2018-08-04T00:22:50.802Z,25.59
2018-08-04T00:25:19.764Z,25.47
2018-08-04T00:27:48.785Z,25.25
2018-08-04T00:30:17.702Z,25.17
2018-08-04T00:32:46.697Z,25.07
2018-08-04T00:35:15.776Z,25.28
2018-08-04T00:37:44.756Z,25.14
2018-08-04T00:40:13.984Z,25.55
2018-08-04T00:42:43.360Z,25.06
2018-08-04T00:45:12.280Z,25.31
2018-08-04T00:47:41.357Z,25.28
2018-08-04T00:50:10.963Z,25.07
2018-08-04T00:52:39.879Z,24.89
2018-08-04T00:55:09.380Z,25.04
2018-08-04T00:57:38.381Z,25.23
2018-08-04T01:00:09.269Z,25.28
2018-08-04T01:02:38.257Z,25.03
2018-08-04T01:05:07.250Z,25.07
2018-08-04T01:07:36.159Z,24.94
2018-08-04T01:10:05.801Z,24.65
2018-08-04T01:12:34.826Z,24.90
2018-08-04T01:15:03.906Z,24.84
2018-08-04T01:17:33.056Z,24.85
2018-08-04T01:20:03.739Z,24.65
2018-08-04T01:22:33.652Z,24.90
2018-08-04T01:25:02.790Z,24.97
2018-08-04T01:27:33.047Z,24.93
2018-08-04T01:30:02.146Z,24.80
2018-08-04T01:32:31.659Z,24.60
2018-08-04T01:35:00.594Z,24.79
2018-08-04T01:37:29.640Z,24.43
2018-08-04T01:39:58.826Z,24.33
2018-08-04T01:42:27.738Z,24.35
2018-08-04T01:44:56.734Z,24.50
2018-08-04T01:47:25.589Z,24.42
2018-08-04T01:49:54.578Z,24.25
2018-08-04T01:52:23.622Z,24.63
2018-08-04T01:54:52.661Z,24.64
2018-08-04T01:57:21.646Z,24.18
2018-08-04T01:59:50.808Z,24.51
2018-08-04T02:02:19.861Z,24.23
2018-08-04T02:04:48.859Z,24.20
2018-08-04T02:07:17.829Z,24.20
2018-08-04T02:09:46.785Z,24.17
2018-08-04T02:37:53.632Z,23.35
2018-08-04T02:40:22.639Z,23.39
2018-08-04T02:42:51.579Z,23.31
2018-08-04T02:45:20.583Z,23.78
2018-08-04T02:47:49.494Z,23.27
2018-08-04T02:50:18.332Z,23.79
2018-08-04T02:52:47.366Z,23.64
2018-08-04T02:55:16.239Z,23.80
2018-08-04T02:57:46.347Z,23.61
2018-08-04T03:00:15.415Z,23.61
2018-08-04T03:02:44.398Z,23.68
2018-08-04T03:05:13.593Z,23.78
2018-08-04T03:07:42.674Z,23.51
2018-08-04T03:10:11.484Z,23.48
2018-08-04T03:12:40.402Z,23.59
2018-08-04T03:15:09.701Z,23.40
2018-08-04T03:17:39.521Z,23.36
2018-08-04T03:20:09.405Z,23.43
2018-08-04T03:22:38.973Z,23.75
2018-08-04T03:25:08.089Z,23.92
2018-08-04T03:27:37.616Z,23.74
2018-08-04T03:30:06.574Z,23.80
2018-08-04T03:32:35.557Z,23.66
2018-08-04T03:35:04.712Z,23.42
2018-08-04T03:37:33.748Z,23.29
2018-08-04T03:40:06.345Z,23.45
2018-08-04T03:42:35.386Z,23.25
2018-08-04T03:45:04.364Z,23.44
2018-08-04T03:47:34.677Z,23.31
2018-08-04T03:50:03.894Z,23.23
2018-08-04T03:52:32.964Z,23.08
2018-08-04T03:55:02.072Z,22.96
2018-08-04T03:57:32.472Z,23.00
2018-08-04T04:00:01.459Z,23.26
2018-08-04T04:02:31.135Z,23.42
2018-08-04T04:05:00.085Z,23.61
2018-08-04T04:07:29.114Z,23.61
2018-08-04T04:09:58.433Z,23.51
2018-08-04T04:12:28.386Z,23.67
2018-08-04T04:14:57.703Z,23.61
2018-08-04T04:17:32.520Z,23.54
2018-08-04T04:20:01.474Z,23.65
2018-08-04T04:22:30.668Z,23.47
2018-08-04T04:24:59.570Z,23.55
2018-08-04T04:27:28.618Z,23.63
2018-08-04T04:29:57.459Z,23.73
2018-08-04T04:32:26.520Z,23.50
2018-08-04T04:34:56.127Z,23.60
2018-08-04T04:37:25.859Z,23.76
2018-08-04T04:39:54.951Z,23.64
2018-08-04T04:42:23.781Z,23.71
2018-08-04T04:44:53.861Z,23.59
2018-08-04T04:47:22.841Z,23.75
2018-08-04T04:49:52.834Z,23.69
2018-08-04T04:52:27.535Z,23.60
2018-08-04T04:54:56.682Z,23.34
2018-08-04T04:57:26.209Z,23.55
2018-08-04T04:59:55.285Z,23.54
2018-08-04T05:02:24.959Z,23.63
2018-08-04T05:04:55.468Z,23.40
2018-08-04T05:07:25.553Z,23.11
2018-08-04T05:09:54.412Z,23.49
2018-08-04T05:12:23.384Z,23.53
2018-08-04T05:14:52.482Z,23.63
2018-08-04T05:17:21.651Z,23.31
2018-08-04T05:19:50.684Z,23.47
2018-08-04T05:22:20.718Z,23.13
2018-08-04T05:24:49.647Z,23.11
2018-08-04T05:27:18.628Z,23.05
2018-08-04T05:29:47.508Z,23.29
2018-08-04T05:32:16.500Z,23.48
2018-08-04T05:34:45.642Z,23.62
2018-08-04T05:37:14.755Z,23.43
2018-08-04T05:39:43.850Z,23.36
2018-08-04T05:42:12.956Z,23.34
2018-08-04T05:44:42.100Z,23.48
2018-08-04T05:47:11.985Z,23.47
2018-08-04T05:49:40.931Z,23.75
2018-08-04T05:52:10.046Z,23.15
2018-08-04T05:54:39.200Z,23.12
2018-08-04T05:57:08.131Z,23.35
2018-08-04T05:59:37.175Z,23.35
2018-08-04T06:02:07.408Z,22.96
2018-08-04T06:04:36.515Z,23.23
2018-08-04T06:07:05.554Z,23.03
2018-08-04T06:09:36.803Z,23.09
2018-08-04T06:12:17.219Z,23.29
2018-08-04T06:14:47.051Z,23.34
2018-08-04T06:17:18.831Z,23.20
2018-08-04T06:19:48.224Z,23.06
2018-08-04T06:22:21.639Z,23.47
2018-08-04T06:24:53.168Z,23.55
2018-08-04T06:27:23.762Z,23.66
2018-08-04T06:29:55.363Z,23.78
2018-08-04T06:32:29.002Z,23.69
2018-08-04T06:35:00.221Z,23.71
2018-08-04T06:37:30.613Z,23.72
2018-08-04T06:40:01.256Z,23.60
2018-08-04T06:42:30.969Z,23.84
2018-08-04T06:45:01.785Z,23.79
2018-08-04T06:47:30.816Z,23.50
2018-08-04T06:50:00.429Z,23.69
2018-08-04T06:52:31.293Z,23.73
2018-08-04T06:55:00.231Z,23.64
2018-08-04T06:57:29.059Z,23.82
2018-08-04T06:59:57.981Z,23.59
2018-08-04T07:02:27.036Z,23.56
2018-08-04T07:04:56.468Z,23.52
2018-08-04T07:07:25.397Z,23.87
2018-08-04T07:09:54.286Z,23.95
2018-08-04T07:12:24.859Z,24.03
2018-08-04T07:14:53.873Z,24.07
2018-08-04T07:17:22.706Z,23.96
2018-08-04T07:19:51.816Z,23.93
2018-08-04T07:22:20.748Z,24.05
2018-08-04T07:24:49.577Z,23.94
2018-08-04T07:27:19.757Z,24.27
2018-08-04T07:29:48.656Z,24.19
2018-08-04T07:32:17.501Z,24.44
2018-08-04T07:34:46.613Z,24.33
2018-08-04T07:37:15.633Z,24.51
2018-08-04T07:39:44.466Z,24.45
2018-08-04T07:42:13.382Z,24.41
2018-08-04T07:44:42.249Z,24.45
2018-08-04T07:47:12.314Z,24.59
2018-08-04T07:49:41.316Z,24.35
2018-08-04T07:52:10.189Z,24.50
2018-08-04T07:54:42.513Z,24.35
2018-08-04T07:57:11.635Z,24.43
2018-08-04T07:59:40.528Z,24.55
2018-08-04T08:02:09.462Z,24.52
2018-08-04T08:04:38.297Z,24.58
2018-08-04T08:07:07.237Z,24.58
2018-08-04T08:09:36.091Z,24.46
2018-08-04T08:12:05.034Z,24.46
2018-08-04T08:14:33.937Z,24.57
2018-08-04T08:17:02.852Z,24.52
2018-08-04T08:19:31.757Z,24.49
2018-08-04T08:22:00.614Z,24.60
2018-08-04T08:24:31.569Z,24.62
2018-08-04T08:27:00.542Z,24.79
2018-08-04T08:29:30.980Z,24.74
2018-08-04T08:32:00.068Z,24.95
2018-08-04T08:34:29.006Z,24.88
2018-08-04T08:36:59.152Z,24.90
2018-08-04T08:39:28.080Z,24.97
2018-08-04T08:41:57.361Z,24.95
2018-08-04T08:44:27.727Z,25.00
2018-08-04T08:46:56.740Z,24.92
2018-08-04T08:49:25.597Z,24.92
2018-08-04T08:51:55.241Z,25.06
2018-08-04T08:54:24.766Z,25.15
2018-08-04T08:56:53.607Z,25.21
2018-08-04T08:59:22.492Z,25.14
2018-08-04T09:01:51.446Z,25.33
2018-08-04T09:04:20.455Z,25.31
2018-08-04T09:06:49.488Z,25.27
2018-08-04T09:09:18.465Z,25.36
2018-08-04T09:11:47.352Z,25.49
2018-08-04T09:14:16.254Z,25.45
2018-08-04T09:16:45.345Z,25.67
2018-08-04T09:19:14.288Z,25.71
2018-08-04T09:21:43.228Z,25.59
2018-08-04T09:24:12.115Z,25.94
2018-08-04T09:26:41.160Z,25.68
2018-08-04T09:29:10.149Z,25.90
2018-08-04T09:31:39.156Z,26.04
2018-08-04T09:34:08.044Z,26.16
2018-08-04T09:36:37.604Z,26.17
2018-08-04T09:39:09.101Z,25.90
2018-08-04T09:41:38.286Z,26.00
2018-08-04T09:44:08.701Z,26.18
2018-08-04T09:46:38.148Z,26.17
2018-08-04T09:49:08.182Z,26.08
2018-08-04T09:51:37.133Z,26.11
2018-08-04T09:54:06.077Z,26.42
2018-08-04T09:56:35.047Z,26.14
2018-08-04T09:59:04.491Z,26.15
2018-08-04T10:01:38.530Z,26.28
2018-08-04T10:04:09.339Z,26.47
2018-08-04T10:06:38.362Z,26.38
2018-08-04T10:09:10.334Z,26.53
2018-08-04T10:11:39.377Z,26.63
2018-08-04T10:14:08.301Z,26.58
2018-08-04T10:16:37.274Z,26.86
2018-08-04T10:19:06.309Z,27.02
2018-08-04T10:21:35.320Z,26.91
2018-08-04T10:24:04.835Z,26.73
2018-08-04T10:26:33.767Z,26.84
2018-08-04T10:29:02.662Z,26.96
2018-08-04T10:31:31.685Z,26.99
2018-08-04T10:34:00.725Z,27.20
2018-08-04T10:36:29.590Z,27.32
2018-08-04T10:38:58.436Z,27.07
2018-08-04T10:41:27.437Z,27.16
2018-08-04T10:43:56.268Z,27.39
2018-08-04T10:46:25.104Z,27.23
2018-08-04T10:48:54.123Z,27.37
2018-08-04T10:51:22.955Z,27.30
2018-08-04T10:53:51.802Z,27.39
2018-08-04T10:56:20.818Z,27.33
2018-08-04T10:58:49.677Z,27.72
2018-08-04T11:01:18.538Z,27.76
2018-08-04T11:03:47.541Z,27.31
2018-08-04T11:06:16.372Z,27.56
2018-08-04T11:08:45.238Z,27.27
2018-08-04T11:11:14.195Z,27.60
2018-08-04T11:13:43.103Z,27.82
2018-08-04T11:16:12.164Z,27.53
2018-08-04T11:18:40.996Z,27.80
2018-08-04T11:21:09.979Z,27.78
2018-08-04T11:23:39.537Z,27.62
2018-08-04T11:26:08.510Z,27.83
2018-08-04T11:28:37.433Z,27.84
2018-08-04T11:31:06.725Z,27.63
2018-08-04T11:33:35.657Z,27.70
2018-08-04T11:36:04.612Z,27.75
2018-08-04T11:38:33.522Z,28.01
2018-08-04T11:41:02.548Z,28.11
2018-08-04T11:43:31.428Z,27.98
2018-08-04T11:46:00.413Z,27.84
2018-08-04T11:48:29.522Z,27.89
2018-08-04T11:50:58.532Z,27.89
2018-08-04T11:53:27.383Z,28.10
2018-08-04T11:55:56.353Z,27.95
2018-08-04T11:58:25.248Z,27.79
2018-08-04T12:00:54.034Z,28.02
2018-08-04T12:03:23.064Z,28.06
2018-08-04T12:05:52.038Z,28.03
2018-08-04T12:08:21.015Z,28.24
2018-08-04T12:10:49.928Z,28.28
2018-08-04T12:13:18.873Z,28.32
2018-08-04T12:15:47.791Z,28.55
2018-08-04T12:18:16.697Z,28.30
2018-08-04T12:20:45.595Z,28.42
2018-08-04T12:23:15.193Z,28.58
2018-08-04T12:25:44.156Z,28.43
2018-08-04T12:28:13.156Z,28.66
2018-08-04T12:30:42.005Z,28.49
2018-08-04T12:33:10.987Z,28.53
2018-08-04T12:35:39.903Z,28.72
2018-08-04T12:38:08.871Z,28.60
2018-08-04T12:40:37.816Z,28.64
2018-08-04T12:43:06.816Z,28.76
2018-08-04T12:45:35.780Z,28.69
2018-08-04T12:48:04.729Z,28.67
2018-08-04T12:50:33.636Z,28.97
2018-08-04T12:53:02.772Z,28.89
2018-08-04T12:55:31.680Z,28.78
2018-08-04T12:58:00.590Z,28.99
2018-08-04T13:00:29.433Z,28.96
2018-08-04T13:02:58.468Z,29.00
2018-08-04T13:05:27.471Z,29.05
2018-08-04T13:07:57.065Z,28.90
2018-08-04T13:10:26.017Z,28.90
2018-08-04T13:12:54.966Z,29.04
2018-08-04T13:15:23.817Z,28.75
2018-08-04T13:17:53.007Z,28.95
2018-08-04T13:20:21.931Z,29.20
2018-08-04T13:22:50.913Z,29.11
2018-08-04T13:25:19.814Z,29.31
2018-08-04T13:27:48.827Z,29.25
2018-08-04T13:30:17.893Z,29.26
2018-08-04T13:32:47.642Z,29.00
2018-08-04T13:35:16.933Z,29.12
2018-08-04T13:37:45.762Z,29.03
2018-08-04T13:40:16.803Z,29.16
2018-08-04T13:42:47.133Z,29.28
2018-08-04T13:45:16.145Z,29.28
2018-08-04T13:47:45.082Z,29.21
2018-08-04T13:50:13.957Z,29.47
2018-08-04T13:52:43.212Z,29.40
2018-08-04T13:55:12.133Z,29.40
2018-08-04T13:57:40.982Z,29.51
2018-08-04T14:00:09.947Z,29.65
2018-08-04T14:02:38.987Z,29.77
2018-08-04T14:05:08.004Z,29.54
2018-08-04T14:07:36.985Z,29.72
2018-08-04T14:10:06.168Z,29.72
2018-08-04T14:12:35.143Z,29.72
2018-08-04T14:15:04.501Z,29.79
2018-08-04T14:17:33.474Z,29.75
2018-08-04T14:20:02.314Z,29.74
2018-08-04T14:22:31.372Z,29.71
2018-08-04T14:25:00.348Z,30.11
2018-08-04T14:27:29.237Z,29.84
2018-08-04T14:29:58.298Z,29.73
2018-08-04T14:32:27.208Z,29.73
2018-08-04T14:34:56.199Z,29.64
2018-08-04T14:37:25.302Z,29.38
2018-08-04T14:39:54.494Z,29.36
2018-08-04T14:42:23.476Z,29.43
2018-08-04T14:44:52.374Z,29.60
2018-08-04T14:47:21.230Z,29.74
2018-08-04T14:49:50.144Z,29.63
2018-08-04T14:52:19.027Z,29.82
2018-08-04T14:54:47.936Z,29.51
2018-08-04T14:57:17.072Z,29.56
2018-08-04T14:59:45.964Z,29.84
2018-08-04T15:02:15.443Z,29.99
2018-08-04T15:04:44.544Z,30.00
2018-08-04T15:07:13.351Z,29.81
2018-08-04T15:09:42.196Z,29.93
2018-08-04T15:12:11.145Z,30.21
2018-08-04T15:14:40.004Z,29.91
2018-08-04T15:17:08.842Z,29.81
2018-08-04T15:19:37.866Z,29.86
2018-08-04T15:22:06.766Z,30.03
2018-08-04T15:24:35.622Z,29.80
2018-08-04T15:27:04.631Z,30.12
2018-08-04T15:29:33.594Z,29.98
2018-08-04T15:32:02.594Z,30.07
2018-08-04T15:34:31.489Z,29.98
2018-08-04T15:37:00.462Z,30.04
2018-08-04T15:39:29.409Z,29.88
2018-08-04T15:41:58.264Z,29.94
2018-08-04T15:44:27.264Z,30.22
2018-08-04T15:46:56.307Z,30.03
2018-08-04T15:49:25.194Z,29.97
2018-08-04T15:51:54.056Z,30.33
2018-08-04T15:54:23.057Z,30.01
2018-08-04T15:56:51.931Z,29.97
2018-08-04T15:59:20.850Z,29.85
2018-08-04T16:01:49.764Z,29.82
2018-08-04T16:04:19.606Z,29.62
2018-08-04T16:06:49.155Z,29.99
2018-08-04T16:09:17.999Z,30.08
2018-08-04T16:11:46.884Z,30.01
2018-08-04T16:14:15.877Z,30.15
2018-08-04T16:16:44.772Z,30.06
2018-08-04T16:19:13.693Z,30.19
2018-08-04T16:21:42.590Z,29.97
2018-08-04T16:24:11.679Z,30.02
2018-08-04T16:26:40.699Z,30.16
2018-08-04T16:29:09.524Z,30.00
2018-08-04T16:31:38.472Z,29.81
2018-08-04T16:34:07.431Z,29.95
2018-08-04T16:36:37.146Z,30.14
2018-08-04T16:39:08.542Z,30.11
2018-08-04T16:41:37.696Z,30.11
2018-08-04T16:44:06.607Z,30.25
2018-08-04T16:46:35.569Z,30.33
2018-08-04T16:49:04.511Z,30.15
2018-08-04T16:51:33.371Z,29.88
2018-08-04T16:54:02.550Z,29.81
2018-08-04T16:56:31.383Z,29.61
2018-08-04T16:59:00.218Z,29.80
2018-08-04T17:01:29.149Z,29.62
2018-08-04T17:03:59.193Z,29.56
2018-08-04T17:06:28.091Z,29.55
2018-08-04T17:08:57.035Z,29.52
2018-08-04T17:11:25.961Z,29.28
2018-08-04T17:13:54.924Z,29.45
2018-08-04T17:16:23.853Z,29.51
2018-08-04T17:18:52.868Z,29.60
2018-08-04T17:21:21.850Z,29.64
2018-08-04T17:23:50.861Z,29.31
2018-08-04T17:26:19.726Z,29.21
2018-08-04T17:28:48.633Z,29.31
2018-08-04T17:31:17.576Z,28.87
2018-08-04T17:33:46.559Z,28.89
2018-08-04T17:36:15.461Z,29.14
2018-08-04T17:38:44.450Z,29.13
2018-08-04T17:41:13.471Z,28.96
2018-08-04T17:43:42.319Z,28.94
2018-08-04T17:46:11.356Z,29.12
2018-08-04T17:48:40.223Z,28.93
2018-08-04T17:51:09.186Z,28.72
2018-08-04T17:53:38.848Z,28.63
2018-08-04T17:56:07.786Z,28.70
2018-08-04T17:58:36.694Z,28.83
2018-08-04T18:01:05.693Z,28.49
2018-08-04T18:03:34.549Z,28.72
2018-08-04T18:06:03.455Z,28.51
2018-08-04T18:08:32.367Z,28.61
2018-08-04T18:11:01.218Z,28.62
2018-08-04T18:13:30.237Z,28.21
2018-08-04T18:15:59.200Z,28.33
2018-08-04T18:18:28.090Z,28.21
2018-08-04T18:20:57.087Z,28.15
2018-08-04T18:23:25.906Z,28.17
2018-08-04T18:25:54.909Z,28.29
2018-08-04T18:28:23.820Z,28.01
2018-08-04T18:30:52.714Z,28.27
2018-08-04T18:33:21.571Z,28.26
2018-08-04T18:35:50.665Z,27.78
2018-08-04T18:38:19.605Z,27.94
2018-08-04T18:40:48.455Z,27.89
2018-08-04T18:43:17.476Z,28.07
2018-08-04T18:45:47.424Z,27.93
2018-08-04T18:48:17.012Z,27.54
2018-08-04T18:50:46.048Z,27.64
2018-08-04T18:53:15.009Z,27.83
2018-08-04T18:55:44.000Z,27.86
2018-08-04T18:58:13.093Z,27.72
2018-08-04T19:00:42.041Z,27.36
2018-08-04T19:03:11.055Z,27.28
2018-08-04T19:05:39.926Z,27.53
2018-08-04T19:08:09.921Z,27.36
2018-08-04T19:10:39.095Z,27.27
2018-08-04T19:13:09.240Z,27.35
2018-08-04T19:15:38.373Z,27.02
2018-08-04T19:18:07.326Z,27.23
2018-08-04T19:20:36.248Z,27.13
2018-08-04T19:23:05.977Z,27.23
2018-08-04T19:25:35.816Z,27.01
2018-08-04T19:28:04.766Z,26.98
2018-08-04T19:30:34.184Z,27.14
2018-08-04T19:33:03.044Z,27.26
2018-08-04T19:35:32.114Z,27.05
2018-08-04T19:38:01.107Z,26.96
2018-08-04T19:40:29.935Z,27.03
2018-08-04T19:42:59.057Z,26.92
2018-08-04T19:45:28.657Z,26.77
2018-08-04T19:47:58.604Z,26.56
2018-08-04T19:50:27.780Z,27.00
2018-08-04T19:52:56.757Z,26.57
2018-08-04T19:55:25.627Z,26.69
2018-08-04T19:57:54.736Z,26.75
2018-08-04T20:00:23.613Z,26.65
2018-08-04T20:02:52.597Z,26.46
2018-08-04T20:05:21.498Z,26.33
2018-08-04T20:07:50.369Z,26.58
2018-08-04T20:10:19.420Z,26.63
2018-08-04T20:12:48.322Z,26.36
2018-08-04T20:15:17.812Z,26.25
2018-08-04T20:17:46.878Z,26.46
2018-08-04T20:20:15.764Z,26.49
2018-08-04T20:22:47.435Z,26.37
2018-08-04T20:25:16.495Z,26.27
2018-08-04T20:27:45.365Z,26.51
2018-08-04T20:30:14.198Z,26.20
2018-08-04T20:32:44.259Z,26.16
2018-08-04T20:35:13.231Z,26.23
2018-08-04T20:37:43.548Z,25.89
2018-08-04T20:40:13.727Z,26.17
2018-08-04T20:42:47.118Z,26.22
2018-08-04T20:45:17.266Z,26.39
2018-08-04T20:47:46.280Z,26.17
2018-08-04T20:50:15.180Z,26.07
2018-08-04T20:52:45.318Z,26.14
2018-08-04T20:55:16.863Z,26.28
2018-08-04T20:57:45.805Z,26.10
2018-08-04T21:00:15.080Z,26.00
2018-08-04T21:02:44.067Z,26.12
2018-08-04T21:05:13.031Z,25.48
2018-08-04T21:07:41.985Z,25.65
2018-08-04T21:10:10.916Z,25.31
2018-08-04T21:12:39.751Z,25.40
2018-08-04T21:15:08.802Z,25.64
2018-08-04T21:17:37.669Z,25.13
2018-08-04T21:20:06.546Z,25.12
2018-08-04T21:22:35.482Z,24.95
2018-08-04T21:25:06.621Z,25.09
2018-08-04T21:27:36.289Z,25.38
2018-08-04T21:30:06.666Z,25.50
2018-08-04T21:32:35.637Z,25.60
2018-08-04T21:35:04.614Z,25.44
2018-08-04T21:37:33.705Z,25.58
2018-08-04T21:40:02.631Z,25.00
2018-08-04T21:42:31.587Z,25.15
2018-08-04T21:45:00.415Z,25.21
2018-08-04T21:47:30.380Z,25.42
2018-08-04T21:50:00.011Z,25.26
2018-08-04T21:52:28.899Z,25.10
2018-08-04T21:54:57.770Z,25.11
2018-08-04T21:57:26.665Z,25.08
2018-08-04T21:59:55.678Z,24.55
2018-08-04T22:02:25.383Z,24.83
2018-08-04T22:05:01.022Z,25.14
2018-08-04T22:07:54.461Z,24.96
2018-08-04T22:10:32.153Z,24.83
2018-08-04T22:13:01.224Z,24.51
2018-08-04T22:15:30.093Z,24.41
2018-08-04T22:17:58.989Z,24.80
2018-08-04T22:20:30.142Z,24.72
2018-08-04T22:22:59.325Z,24.63
2018-08-04T22:25:30.992Z,24.62
2018-08-04T22:28:05.697Z,24.68
2018-08-04T22:30:37.095Z,24.75
2018-08-04T22:33:08.003Z,24.66
2018-08-04T22:35:38.029Z,24.67
2018-08-04T22:38:06.910Z,24.51
2018-08-04T22:40:41.331Z,24.60
2018-08-04T22:43:12.404Z,24.31
2018-08-04T22:46:11.719Z,24.53
2018-08-04T22:48:46.775Z,24.35
2018-08-04T22:51:28.351Z,24.31
2018-08-04T22:53:57.539Z,23.87
2018-08-04T22:56:27.078Z,24.34
2018-08-04T22:58:56.056Z,23.91
2018-08-04T23:01:25.093Z,24.05
2018-08-04T23:03:54.616Z,23.83
2018-08-04T23:06:23.455Z,24.03
2018-08-04T23:08:52.405Z,23.52
2018-08-04T23:11:21.652Z,23.98
2018-08-04T23:13:51.999Z,23.78
2018-08-04T23:16:20.922Z,23.87
2018-08-04T23:18:50.999Z,23.80
2018-08-04T23:21:20.852Z,23.88
2018-08-04T23:23:49.802Z,23.56
2018-08-04T23:26:20.777Z,23.59
2018-08-04T23:28:50.800Z,23.36
2018-08-04T23:31:20.424Z,23.45
2018-08-04T23:33:51.419Z,23.75
2018-08-04T23:36:20.904Z,23.53
2018-08-04T23:38:50.724Z,23.67
2018-08-04T23:41:25.176Z,23.70
2018-08-04T23:43:55.397Z,23.59
2018-08-04T23:46:25.606Z,23.37
2018-08-04T23:48:55.569Z,23.30
2018-08-04T23:51:26.645Z,23.42
2018-08-04T23:53:55.624Z,23.44
2018-08-04T23:56:25.796Z,23.48
2018-08-04T23:58:55.763Z,23.57
